Time;durP1;ratioP1;P1;durP2;ratioP2;P2;SDS_P1;SDS_P2;PMS_P1;PMS_P2;Temp;Humidity;BMP_temperature;BMP_pressure;BME280_temperature;BME280_humidity;BME280_pressure;Samples;Min_cycle;Max_cycle;Signal;HPM_P1;HPM_P2
2022/08/22 00:00:10;;;;;;;12.55;3.22;;;20.60;99.90;;;;;;5067219;28;20472;-75
2022/08/22 00:03:10;;;;;;;11.60;3.55;;;20.50;99.90;;;;;;5068452;28;20074;-74
2022/08/22 00:05:38;;;;;;;11.63;2.78;;;20.70;99.90;;;;;;5072858;28;20032;-75
2022/08/22 00:08:42;;;;;;;12.60;2.83;;;20.70;99.90;;;;;;5070879;28;20032;-75
2022/08/22 00:11:24;;;;;;;15.60;3.38;;;20.70;99.90;;;;;;5057927;28;20093;-75
2022/08/22 00:14:07;;;;;;;13.13;2.88;;;20.80;99.90;;;;;;5069802;28;20031;-75
2022/08/22 00:16:53;;;;;;;11.82;3.50;;;20.90;99.90;;;;;;5070001;28;20095;-75
2022/08/22 00:19:34;;;;;;;13.77;3.30;;;20.90;99.90;;;;;;5051971;28;20049;-76
2022/08/22 00:22:12;;;;;;;9.02;3.30;;;20.90;99.90;;;;;;5067258;28;20499;-74
2022/08/22 00:24:52;;;;;;;17.15;3.03;;;21.00;99.90;;;;;;5071162;28;20036;-74
2022/08/22 00:27:33;;;;;;;8.73;2.45;;;21.00;99.90;;;;;;5073783;28;20021;-74
2022/08/22 00:30:15;;;;;;;12.50;2.83;;;20.90;99.90;;;;;;5073976;28;20025;-74
2022/08/22 00:32:58;;;;;;;13.25;3.42;;;21.10;99.90;;;;;;5074069;28;20082;-73
2022/08/22 00:35:37;;;;;;;11.32;3.00;;;21.10;99.90;;;;;;5073937;28;20472;-74
2022/08/22 00:38:21;;;;;;;9.82;2.95;;;21.10;99.90;;;;;;5073456;28;20444;-76
2022/08/22 00:41:02;;;;;;;13.85;3.30;;;21.10;99.90;;;;;;5073952;28;20043;-74
2022/08/22 00:43:50;;;;;;;12.35;3.00;;;21.10;99.90;;;;;;5073672;28;20024;-74
2022/08/22 00:46:27;;;;;;;12.40;2.83;;;21.00;99.90;;;;;;5073948;28;20040;-73
2022/08/22 00:49:20;;;;;;;16.10;3.10;;;21.00;99.90;;;;;;5073723;28;20028;-73
2022/08/22 00:52:10;;;;;;;13.70;3.03;;;21.10;99.90;;;;;;5073754;28;20069;-73
2022/08/22 00:55:00;;;;;;;11.32;2.90;;;20.90;99.90;;;;;;5073884;28;20477;-76
2022/08/22 00:57:59;;;;;;;14.60;3.33;;;20.70;99.90;;;;;;5073315;28;20135;-76
2022/08/22 01:00:30;;;;;;;12.35;3.10;;;20.60;99.90;;;;;;5073330;28;20028;-75
2022/08/22 01:03:14;;;;;;;;;;;20.60;99.90;;;;;;5074042;28;20468;-76
2022/08/22 01:05:46;;;;;;;12.55;3.40;;;20.70;99.90;;;;;;5073437;28;20337;-76
2022/08/22 01:08:42;;;;;;;11.32;3.03;;;20.80;99.90;;;;;;5073180;28;20036;-74
2022/08/22 01:11:20;;;;;;;8.57;2.88;;;20.90;99.90;;;;;;5073582;28;20024;-75
2022/08/22 01:14:07;;;;;;;14.90;3.60;;;20.80;99.90;;;;;;5073095;28;20048;-70
2022/08/22 01:16:59;;;;;;;13.52;2.75;;;20.90;99.90;;;;;;5073195;28;20079;-74
2022/08/22 01:19:43;;;;;;;11.63;3.38;;;20.90;99.90;;;;;;5073137;28;20442;-73
2022/08/22 01:22:43;;;;;;;14.30;2.80;;;21.00;99.90;;;;;;5057536;28;20048;-73
2022/08/22 01:25:46;;;;;;;14.70;3.10;;;20.90;99.90;;;;;;5073053;28;20078;-75
2022/08/22 01:28:22;;;;;;;12.43;2.55;;;20.80;99.90;;;;;;5072958;28;20113;-75
2022/08/22 01:31:34;;;;;;;7.35;2.53;;;20.70;99.90;;;;;;5073081;28;20389;-73
2022/08/22 01:34:25;;;;;;;9.77;3.00;;;20.90;99.90;;;;;;5045892;28;20162;-70
2022/08/22 01:37:19;;;;;;;8.88;2.90;;;20.90;99.90;;;;;;5062830;28;20040;-70
2022/08/22 01:40:19;;;;;;;10.52;3.20;;;20.70;99.90;;;;;;5072694;28;20028;-70
2022/08/22 01:43:06;;;;;;;10.30;3.25;;;20.70;99.90;;;;;;5073031;28;20025;-69
2022/08/22 01:45:38;;;;;;;10.48;3.10;;;20.60;99.90;;;;;;5073018;28;20021;-72
2022/08/22 01:48:13;;;;;;;12.48;3.08;;;20.40;99.90;;;;;;5072964;28;20024;-73
2022/08/22 01:50:52;;;;;;;12.05;3.60;;;20.20;99.90;;;;;;5071388;28;20456;-72
2022/08/22 01:53:38;;;;;;;8.52;2.92;;;20.40;99.90;;;;;;5054635;28;20024;-69
2022/08/22 01:56:20;;;;;;;10.93;3.10;;;20.50;99.90;;;;;;5072687;28;20045;-71
2022/08/22 01:59:09;;;;;;;17.02;3.00;;;20.50;99.90;;;;;;5072997;28;20394;-70
2022/08/22 02:01:56;;;;;;;14.23;3.50;;;20.50;99.90;;;;;;5072693;28;20389;-74
2022/08/22 02:04:47;;;;;;;13.85;2.90;;;20.70;99.90;;;;;;5072532;28;20353;-75
2022/08/22 02:07:38;;;;;;;17.65;3.63;;;20.60;99.90;;;;;;5072772;28;20029;-70
2022/08/22 02:10:57;;;;;;;12.85;2.83;;;20.60;99.90;;;;;;5072501;28;20032;-73
2022/08/22 02:13:55;;;;;;;9.63;3.42;;;20.60;99.90;;;;;;4991127;28;20031;-72
2022/08/22 02:16:33;;;;;;;15.95;3.78;;;20.60;99.90;;;;;;5064718;28;20143;-74
2022/08/22 02:19:21;;;;;;;13.40;4.03;;;20.40;99.90;;;;;;5066380;28;20032;-72
2022/08/22 02:21:54;;;;;;;13.57;3.35;;;20.50;99.90;;;;;;5067638;28;20039;-73
2022/08/22 02:24:32;;;;;;;11.88;3.78;;;20.60;99.90;;;;;;5072531;28;20034;-72
2022/08/22 02:27:09;;;;;;;14.98;3.65;;;20.80;99.90;;;;;;5074197;28;20033;-72
2022/08/22 02:29:49;;;;;;;11.95;3.00;;;20.90;99.90;;;;;;5076496;28;20025;-71
2022/08/22 02:32:28;;;;;;;12.70;3.50;;;20.40;99.90;;;;;;5063243;28;20379;-74
2022/08/22 02:35:04;;;;;;;10.82;3.35;;;20.30;99.90;;;;;;5063131;28;20032;-72
2022/08/22 02:37:38;;;;;;;10.77;3.22;;;20.50;99.90;;;;;;5076238;28;20052;-70
2022/08/22 02:40:14;;;;;;;12.15;4.25;;;20.50;99.90;;;;;;5076288;28;20055;-75
2022/08/22 02:43:14;;;;;;;9.55;3.08;;;20.70;99.90;;;;;;5076457;28;20044;-74
2022/08/22 02:46:14;;;;;;;14.02;3.00;;;20.70;99.90;;;;;;5061887;28;20096;-74
2022/08/22 02:48:52;;;;;;;11.68;3.67;;;20.50;99.90;;;;;;5075964;28;20097;-72
2022/08/22 02:51:33;;;;;;;21.00;4.22;;;20.50;99.90;;;;;;5075918;28;20032;-74
2022/08/22 02:54:10;;;;;;;20.88;3.65;;;20.70;99.90;;;;;;5076069;28;20037;-73
2022/08/22 02:56:49;;;;;;;16.13;5.05;;;20.50;99.90;;;;;;5074264;28;20036;-75
2022/08/22 02:59:38;;;;;;;14.90;4.30;;;20.30;99.90;;;;;;5076053;28;20465;-74
2022/08/22 03:02:28;;;;;;;12.73;3.85;;;20.40;99.90;;;;;;5075778;28;20051;-72
2022/08/22 03:05:13;;;;;;;17.67;3.53;;;20.40;99.90;;;;;;5075733;28;20083;-71
2022/08/22 03:07:46;;;;;;;16.42;4.15;;;20.50;99.90;;;;;;5076001;28;20064;-74
2022/08/22 03:10:18;;;;;;;13.57;3.45;;;20.30;99.90;;;;;;5075438;28;20059;-75
2022/08/22 03:12:54;;;;;;;12.77;3.88;;;20.20;99.90;;;;;;5075832;28;20119;-74
2022/08/22 03:15:35;;;;;;;12.90;3.75;;;20.50;99.90;;;;;;5075206;28;20063;-73
2022/08/22 03:18:21;;;;;;;16.58;3.63;;;20.60;99.90;;;;;;5075319;28;20101;-75
2022/08/22 03:21:09;;;;;;;15.65;4.00;;;20.50;99.90;;;;;;5075434;28;20126;-72
2022/08/22 03:23:53;;;;;;;14.55;3.80;;;20.60;99.90;;;;;;5075428;28;20087;-75
2022/08/22 03:26:31;;;;;;;14.68;3.78;;;20.70;99.90;;;;;;5076020;28;20057;-74
2022/08/22 03:29:08;;;;;;;9.90;3.45;;;20.50;99.90;;;;;;5075233;28;20484;-74
2022/08/22 03:31:35;;;;;;;18.00;4.68;;;20.50;99.90;;;;;;5074864;28;20389;-74
2022/08/22 03:34:15;;;;;;;19.33;4.38;;;20.10;99.90;;;;;;5075327;28;20028;-74
2022/08/22 03:37:03;;;;;;;12.13;3.80;;;20.00;99.90;;;;;;5075109;28;20123;-75
2022/08/22 03:39:49;;;;;;;14.18;4.70;;;19.90;99.90;;;;;;5073779;28;20525;-74
2022/08/22 03:42:21;;;;;;;12.65;4.25;;;19.70;99.90;;;;;;5075278;28;20089;-74
2022/08/22 03:44:58;;;;;;;17.05;5.13;;;19.60;99.90;;;;;;5074852;28;20405;-71
2022/08/22 03:47:35;;;;;;;15.73;5.35;;;20.00;99.90;;;;;;5074830;28;20076;-71
2022/08/22 03:50:30;;;;;;;11.00;4.47;;;20.20;99.90;;;;;;5073555;28;20487;-75
2022/08/22 03:53:44;;;;;;;15.60;5.07;;;20.40;99.90;;;;;;5001874;28;20085;-73
2022/08/22 03:56:22;;;;;;;19.13;5.07;;;20.10;99.90;;;;;;5019254;28;20052;-72
2022/08/22 03:59:25;;;;;;;12.20;5.10;;;20.10;99.90;;;;;;5074772;28;20473;-71
2022/08/22 04:02:06;;;;;;;14.10;5.32;;;20.20;99.90;;;;;;5074355;28;20028;-70
2022/08/22 04:04:41;;;;;;;16.37;5.43;;;20.10;99.90;;;;;;5074625;28;20384;-73
2022/08/22 04:07:12;;;;;;;14.70;6.03;;;20.10;99.90;;;;;;5073278;28;20389;-76
2022/08/22 04:09:50;;;;;;;;;;;20.10;99.90;;;;;;5075259;28;20036;-74
2022/08/22 04:12:21;;;;;;;20.20;5.88;;;20.10;99.90;;;;;;5063415;28;19892;-71
2022/08/22 04:15:02;;;;;;;14.73;5.47;;;20.10;99.90;;;;;;5079456;28;20072;-70
2022/08/22 04:17:46;;;;;;;19.03;5.40;;;20.10;99.90;;;;;;5075492;28;20098;-74
2022/08/22 04:20:37;;;;;;;19.02;5.68;;;20.10;99.90;;;;;;5074266;28;20020;-72
2022/08/22 04:23:21;;;;;;;17.52;5.72;;;20.10;99.90;;;;;;5074454;28;20029;-70
2022/08/22 04:25:56;;;;;;;14.55;5.63;;;20.20;99.90;;;;;;5077137;28;20032;-70
2022/08/22 04:28:44;;;;;;;16.73;5.20;;;20.20;99.90;;;;;;5081076;28;20082;-74
2022/08/22 04:31:12;;;;;;;16.92;6.10;;;20.10;99.90;;;;;;5074006;28;20035;-68
2022/08/22 04:33:49;;;;;;;19.02;5.63;;;20.20;99.90;;;;;;5073901;28;20033;-72
2022/08/22 04:36:26;;;;;;;13.65;5.13;;;20.10;99.90;;;;;;5073822;28;20041;-73
2022/08/22 04:38:58;;;;;;;16.25;5.60;;;20.00;99.90;;;;;;5073859;28;20021;-70
2022/08/22 04:42:06;;;;;;;16.83;4.68;;;20.00;99.90;;;;;;5072748;28;20040;-72
2022/08/22 04:44:37;;;;;;;14.15;5.35;;;19.80;99.90;;;;;;5073483;28;20028;-75
2022/08/22 04:47:23;;;;;;;15.57;5.03;;;19.40;99.90;;;;;;5073948;28;20112;-74
2022/08/22 04:50:13;;;;;;;20.15;5.30;;;19.60;99.90;;;;;;5072439;28;20120;-75
2022/08/22 04:53:03;;;;;;;19.70;5.63;;;19.60;99.90;;;;;;5073271;28;20032;-73
2022/08/22 04:56:01;;;;;;;12.50;5.38;;;19.50;99.90;;;;;;5072816;28;20118;-75
2022/08/22 04:58:43;;;;;;;17.73;5.88;;;19.80;99.90;;;;;;5069329;28;20125;-74
2022/08/22 05:01:23;;;;;;;14.82;5.75;;;20.10;99.90;;;;;;5073516;28;20031;-72
2022/08/22 05:03:58;;;;;;;18.50;6.38;;;20.40;99.90;;;;;;5073241;28;20053;-72
2022/08/22 05:06:28;;;;;;;15.88;5.10;;;20.40;99.90;;;;;;5072885;28;20028;-72
2022/08/22 05:08:59;;;;;;;16.55;5.70;;;20.40;99.90;;;;;;5073138;28;20205;-75
2022/08/22 05:11:26;;;;;;;16.77;6.10;;;20.30;99.90;;;;;;5073422;28;20033;-73
2022/08/22 05:14:04;;;;;;;11.90;4.90;;;19.90;99.90;;;;;;5073029;28;20032;-74
2022/08/22 05:16:36;;;;;;;15.10;5.70;;;19.70;99.90;;;;;;5073179;28;20097;-71
2022/08/22 05:19:19;;;;;;;16.80;5.35;;;19.70;99.90;;;;;;5073146;28;20099;-74
2022/08/22 05:21:49;;;;;;;16.48;5.45;;;20.00;99.90;;;;;;5072994;28;20036;-74
2022/08/22 05:24:46;;;;;;;16.40;5.60;;;20.00;99.90;;;;;;5073354;28;20028;-75
2022/08/22 05:27:18;;;;;;;17.60;6.10;;;19.60;99.90;;;;;;5044278;28;20040;-75
2022/08/22 05:29:49;;;;;;;19.58;7.40;;;19.70;99.90;;;;;;5072801;28;20024;-69
2022/08/22 05:32:29;;;;;;;14.00;5.80;;;19.50;99.90;;;;;;5072865;28;20033;-74
2022/08/22 05:34:59;;;;;;;14.55;6.22;;;19.60;99.90;;;;;;5065718;28;20547;-73
2022/08/22 05:37:37;;;;;;;18.27;6.57;;;19.70;99.90;;;;;;5066769;28;20047;-75
2022/08/22 05:40:04;;;;;;;17.40;6.40;;;19.90;99.90;;;;;;5073163;28;20377;-74
2022/08/22 05:42:33;;;;;;;16.30;6.30;;;20.00;99.90;;;;;;5072722;28;20370;-75
2022/08/22 05:45:05;;;;;;;14.27;6.25;;;20.10;99.90;;;;;;5058691;28;20031;-74
2022/08/22 05:47:45;;;;;;;20.70;6.40;;;19.80;99.90;;;;;;5072505;28;20039;-74
2022/08/22 05:50:19;;;;;;;18.77;7.05;;;19.50;99.90;;;;;;5072383;28;20027;-75
2022/08/22 05:52:55;;;;;;;22.38;7.18;;;19.50;99.90;;;;;;5072489;28;20032;-76
2022/08/22 05:55:23;;;;;;;21.48;6.53;;;19.50;99.90;;;;;;5059843;28;20440;-72
2022/08/22 05:58:11;;;;;;;19.35;7.20;;;19.70;99.90;;;;;;5072062;28;20115;-75
2022/08/22 06:00:41;;;;;;;18.77;7.68;;;20.10;99.90;;;;;;5071992;28;20087;-74
2022/08/22 06:03:29;;;;;;;23.10;8.23;;;20.50;99.90;;;;;;5058048;28;20484;-72
2022/08/22 06:05:58;;;;;;;19.45;6.50;;;20.70;99.90;;;;;;5072438;28;20063;-72
2022/08/22 06:08:40;;;;;;;18.77;7.10;;;20.70;99.90;;;;;;5072312;28;20115;-74
2022/08/22 06:11:20;;;;;;;19.98;7.43;;;20.40;99.90;;;;;;5072235;28;20099;-75
2022/08/22 06:14:06;;;;;;;14.60;7.10;;;20.00;99.90;;;;;;5072086;28;20026;-72
2022/08/22 06:16:58;;;;;;;26.25;6.60;;;20.30;99.90;;;;;;5072352;28;20040;-73
2022/08/22 06:19:24;;;;;;;19.67;7.15;;;20.20;99.90;;;;;;5071360;28;20032;-75
2022/08/22 06:21:53;;;;;;;21.52;7.65;;;20.10;99.90;;;;;;5072230;28;20358;-73
2022/08/22 06:24:23;;;;;;;18.67;8.13;;;20.30;99.90;;;;;;5071983;28;20029;-72
2022/08/22 06:26:52;;;;;;;23.25;8.20;;;20.40;99.90;;;;;;5071998;28;20032;-70
2022/08/22 06:29:38;;;;;;;20.63;7.65;;;20.40;99.90;;;;;;5059202;28;20268;-74
2022/08/22 06:32:21;;;;;;;19.92;8.07;;;20.40;99.90;;;;;;5054681;28;20558;-75
2022/08/22 06:34:49;;;;;;;26.00;8.05;;;20.40;99.90;;;;;;5066467;28;20029;-78
2022/08/22 06:37:25;;;;;;;24.17;8.65;;;20.40;99.90;;;;;;5068244;28;20029;-81
2022/08/22 06:39:52;;;;;;;20.60;8.63;;;20.70;99.90;;;;;;5064415;28;20029;-76
2022/08/22 06:42:24;;;;;;;23.17;9.35;;;20.60;99.90;;;;;;5069990;28;20043;-70
2022/08/22 06:45:04;;;;;;;26.42;8.45;;;20.70;99.90;;;;;;5066537;28;20059;-79
2022/08/22 06:47:35;;;;;;;29.33;8.82;;;20.80;99.90;;;;;;5059598;28;20104;-78
2022/08/22 06:50:11;;;;;;;19.67;8.18;;;20.90;99.90;;;;;;5066613;28;20025;-73
2022/08/22 06:52:53;;;;;;;30.85;8.45;;;21.00;99.90;;;;;;5059122;28;20139;-76
2022/08/22 06:55:21;;;;;;;19.05;7.40;;;20.80;99.90;;;;;;5059340;28;20107;-80
2022/08/22 06:58:16;;;;;;;15.43;7.78;;;20.80;99.90;;;;;;5054114;28;20439;-79
2022/08/22 07:00:43;;;;;;;19.55;7.43;;;21.00;99.90;;;;;;5053403;28;20440;-78
2022/08/22 07:03:25;;;;;;;21.25;7.07;;;21.50;99.90;;;;;;5057030;28;20438;-75
2022/08/22 07:05:54;;;;;;;18.55;6.85;;;21.30;99.90;;;;;;5068514;28;20024;-77
2022/08/22 07:08:23;;;;;;;23.00;7.80;;;21.40;99.90;;;;;;5060271;28;20032;-74
2022/08/22 07:11:11;;;;;;;20.20;6.65;;;21.30;99.90;;;;;;5056976;28;20091;-75
2022/08/22 07:13:41;;;;;;;16.77;7.45;;;21.30;99.90;;;;;;5058748;28;20029;-81
2022/08/22 07:16:08;;;;;;;20.48;7.65;;;21.40;99.90;;;;;;5061003;28;20043;-77
2022/08/22 07:18:44;;;;;;;18.00;7.30;;;21.40;99.90;;;;;;5069310;28;20401;-82
2022/08/22 07:21:10;;;;;;;23.30;8.30;;;21.80;99.90;;;;;;5061223;28;20028;-82
2022/08/22 07:23:44;;;;;;;31.83;8.43;;;22.10;99.90;;;;;;5053979;28;20033;-76
2022/08/22 07:26:16;;;;;;;20.50;6.55;;;22.20;99.90;;;;;;5065383;28;20396;-77
2022/08/22 07:28:49;;;;;;;22.98;8.80;;;21.90;99.90;;;;;;5057987;28;20033;-79
2022/08/22 07:31:35;;;;;;;16.50;7.03;;;22.00;99.90;;;;;;5072586;28;20036;-78
2022/08/22 07:34:36;;;;;;;21.30;8.45;;;22.00;99.90;;;;;;5061428;28;20096;-81
2022/08/22 07:37:14;;;;;;;18.42;6.95;;;21.80;99.90;;;;;;5053621;28;20052;-83
2022/08/22 07:39:52;;;;;;;23.48;7.20;;;21.70;99.90;;;;;;5054392;28;20025;-79
2022/08/22 07:42:23;;;;;;;27.40;8.13;;;21.90;99.90;;;;;;5056820;28;20502;-81
2022/08/22 07:45:04;;;;;;;22.95;8.45;;;22.10;99.90;;;;;;5053847;28;20385;-81
2022/08/22 07:47:56;;;;;;;25.80;8.65;;;22.10;99.90;;;;;;5053101;28;20033;-81
2022/08/22 07:50:26;;;;;;;32.63;8.93;;;22.40;99.90;;;;;;5054537;28;20106;-75
2022/08/22 07:52:58;;;;;;;28.35;8.73;;;22.10;99.90;;;;;;5053710;28;20112;-79
2022/08/22 07:55:25;;;;;;;16.85;7.60;;;22.10;99.90;;;;;;5061796;28;20389;-78
2022/08/22 07:58:03;;;;;;;24.23;8.52;;;22.40;99.90;;;;;;5072648;28;20430;-81
2022/08/22 08:00:31;;;;;;;25.30;8.02;;;22.20;99.90;;;;;;5073523;28;20032;-77
2022/08/22 08:03:04;;;;;;;27.17;8.30;;;22.30;99.90;;;;;;5073258;28;20065;-71
2022/08/22 08:05:34;;;;;;;23.73;8.13;;;22.00;99.90;;;;;;5070399;28;20028;-80
2022/08/22 08:08:06;;;;;;;17.80;8.13;;;22.30;99.90;;;;;;5053817;28;20033;-83
2022/08/22 08:10:35;;;;;;;25.55;8.07;;;22.60;99.90;;;;;;5054451;28;20075;-75
2022/08/22 08:13:06;;;;;;;22.45;7.65;;;23.00;99.90;;;;;;5052737;28;20110;-79
2022/08/22 08:15:36;;;;;;;17.85;7.03;;;22.90;99.90;;;;;;5055355;28;20520;-79
2022/08/22 08:18:07;;;;;;;19.38;6.28;;;22.90;99.90;;;;;;5053945;28;20611;-71
2022/08/22 08:20:35;;;;;;;27.83;6.75;;;23.00;99.90;;;;;;5056611;28;20031;-78
2022/08/22 08:23:02;;;;;;;20.10;6.07;;;23.00;99.90;;;;;;5054042;28;20031;-80
2022/08/22 08:25:32;;;;;;;22.90;6.80;;;23.00;99.90;;;;;;5052352;28;20030;-73
2022/08/22 08:30:54;;;;;;;16.05;5.43;;;23.60;99.90;;;;;;5054551;28;20028;-71
2022/08/22 08:33:22;;;;;;;23.15;6.32;;;23.60;99.90;;;;;;5052784;28;20068;-75
2022/08/22 08:36:13;;;;;;;15.27;5.18;;;23.40;99.90;;;;;;5053099;28;20713;-78
2022/08/22 08:38:42;;;;;;;17.25;4.10;;;23.30;99.90;;;;;;5053230;28;20116;-81
2022/08/22 08:41:31;;;;;;;19.38;5.63;;;23.40;99.90;;;;;;5060830;28;20094;-79
2022/08/22 08:44:21;;;;;;;14.13;5.45;;;23.70;99.90;;;;;;5059588;28;20036;-80
2022/08/22 08:47:08;;;;;;;22.65;5.32;;;23.80;99.90;;;;;;5054863;28;20115;-75
2022/08/22 08:49:56;;;;;;;14.43;5.20;;;24.40;99.90;;;;;;5057753;28;20481;-76
2022/08/22 08:52:58;;;;;;;20.30;5.30;;;24.50;99.90;;;;;;5054425;28;20025;-74
2022/08/22 08:55:46;;;;;;;18.23;4.80;;;24.20;99.90;;;;;;5053149;28;20020;-79
2022/08/22 08:58:37;;;;;;;20.27;5.10;;;24.20;99.90;;;;;;5053090;28;20045;-73
2022/08/22 09:01:15;;;;;;;17.35;5.32;;;24.40;99.90;;;;;;5051167;28;20075;-72
2022/08/22 09:04:00;;;;;;;12.43;4.25;;;24.40;99.90;;;;;;5053204;28;20037;-72
2022/08/22 09:06:50;;;;;;;12.65;4.28;;;24.30;99.90;;;;;;5055150;28;20025;-74
2022/08/22 09:09:44;;;;;;;13.23;4.30;;;24.60;99.90;;;;;;5058795;28;20381;-71
2022/08/22 09:12:27;;;;;;;15.52;4.72;;;24.10;99.90;;;;;;5054524;28;20066;-73
2022/08/22 09:14:59;;;;;;;18.20;4.72;;;24.40;99.90;;;;;;5057789;28;20029;-72
2022/08/22 09:17:38;;;;;;;15.45;3.88;;;24.20;99.90;;;;;;5053517;28;20086;-74
2022/08/22 09:20:24;;;;;;;11.15;4.75;;;24.30;99.90;;;;;;5056936;28;20048;-75
2022/08/22 09:23:13;;;;;;;13.05;4.97;;;25.00;99.90;;;;;;5053380;28;20066;-72
2022/08/22 09:25:57;;;;;;;18.83;5.28;;;25.10;99.90;;;;;;5051430;28;20040;-76
2022/08/22 09:28:33;;;;;;;19.05;5.00;;;25.00;99.90;;;;;;5057913;28;20034;-70
2022/08/22 09:31:20;;;;;;;17.10;5.05;;;25.60;99.90;;;;;;5059056;28;20107;-73
2022/08/22 09:33:54;;;;;;;16.40;4.40;;;25.90;99.90;;;;;;5074187;28;20040;-77
2022/08/22 09:36:33;;;;;;;22.50;5.20;;;26.20;99.90;;;;;;5074884;28;20028;-80
2022/08/22 09:39:13;;;;;;;18.20;4.75;;;26.30;99.60;;;;;;5073198;28;20416;-78
2022/08/22 09:42:01;;;;;;;13.73;4.15;;;25.80;99.30;;;;;;5066346;28;20095;-78
2022/08/22 09:44:48;;;;;;;22.20;4.68;;;26.00;99.90;;;;;;5067654;28;20107;-79
2022/08/22 09:47:42;;;;;;;19.17;4.55;;;26.20;98.20;;;;;;5072625;28;20457;-77
2022/08/22 09:50:32;;;;;;;17.38;4.43;;;26.10;99.40;;;;;;5072794;28;20021;-77
2022/08/22 09:53:08;;;;;;;16.23;4.28;;;26.20;98.20;;;;;;5058283;28;20404;-75
2022/08/22 09:55:50;;;;;;;9.65;3.42;;;26.10;98.50;;;;;;5072054;28;20055;-78
2022/08/22 09:58:31;;;;;;;13.73;3.30;;;26.70;98.30;;;;;;5072512;28;20044;-79
2022/08/22 10:01:22;;;;;;;13.50;2.88;;;26.20;95.20;;;;;;5071517;28;20078;-72
2022/08/22 10:04:06;;;;;;;11.98;3.38;;;26.20;96.10;;;;;;5072445;28;20028;-71
2022/08/22 10:07:02;;;;;;;11.23;3.00;;;26.20;96.50;;;;;;5071399;28;20074;-74
2022/08/22 10:09:53;;;;;;;19.52;3.75;;;26.10;96.90;;;;;;5072839;28;20484;-73
2022/08/22 10:12:29;;;;;;;12.63;2.70;;;27.00;95.40;;;;;;5072333;28;20047;-78
2022/08/22 10:15:36;;;;;;;11.88;3.53;;;27.10;95.40;;;;;;5072397;28;20063;-77
2022/08/22 10:18:02;;;;;;;16.67;3.75;;;26.50;94.90;;;;;;5054686;28;20394;-70
2022/08/22 10:20:34;;;;;;;18.45;3.00;;;26.20;96.10;;;;;;5071276;28;20050;-69
2022/08/22 10:23:15;;;;;;;11.35;2.53;;;26.20;95.20;;;;;;5072835;28;20025;-73
2022/08/22 10:25:50;;;;;;;13.20;2.75;;;26.20;96.10;;;;;;5072696;28;20021;-70
2022/08/22 10:28:19;;;;;;;9.63;2.85;;;26.60;95.10;;;;;;5072759;28;20427;-71
2022/08/22 10:30:50;;;;;;;8.32;2.67;;;27.10;94.80;;;;;;5072402;28;20025;-71
2022/08/22 10:33:37;;;;;;;8.07;2.70;;;27.20;93.00;;;;;;5072122;28;20025;-78
2022/08/22 10:36:06;;;;;;;11.65;2.97;;;27.50;93.30;;;;;;5071973;28;20461;-71
2022/08/22 10:38:42;;;;;;;14.05;2.60;;;27.80;92.40;;;;;;5072318;28;20048;-72
2022/08/22 10:41:34;;;;;;;9.35;2.72;;;27.40;92.40;;;;;;5072250;28;20111;-70
2022/08/22 10:44:20;;;;;;;12.90;3.10;;;27.10;93.40;;;;;;5072615;28;20388;-71
2022/08/22 10:46:52;;;;;;;14.48;2.95;;;27.10;93.00;;;;;;5072002;28;20017;-73
2022/08/22 10:49:40;;;;;;;11.30;2.90;;;27.00;92.90;;;;;;5076145;28;20103;-71
2022/08/22 10:52:19;;;;;;;14.38;2.65;;;26.50;93.90;;;;;;5076041;28;20372;-74
2022/08/22 10:54:50;;;;;;;11.25;2.45;;;26.80;92.80;;;;;;5075991;28;20384;-75
2022/08/22 10:57:21;;;;;;;;;;;27.40;93.10;;;;;;5076063;28;20037;-77
2022/08/22 10:59:59;;;;;;;16.20;3.42;;;27.50;93.30;;;;;;5075962;28;19916;-77
2022/08/22 11:02:47;;;;;;;13.15;3.15;;;28.20;93.00;;;;;;5065030;28;20064;-75
2022/08/22 11:05:41;;;;;;;9.65;3.30;;;29.20;92.00;;;;;;5074262;28;20024;-80
2022/08/22 11:08:22;;;;;;;13.02;3.55;;;30.00;91.20;;;;;;5075482;28;20032;-76
2022/08/22 11:11:34;;;;;;;9.43;3.08;;;30.30;90.90;;;;;;5075654;28;20043;-80
2022/08/22 11:14:25;;;;;;;15.35;3.40;;;29.90;90.90;;;;;;4994353;28;20030;-80
2022/08/22 11:17:12;;;;;;;9.50;3.08;;;30.10;90.30;;;;;;5071466;28;20048;-79
2022/08/22 11:19:56;;;;;;;14.80;3.13;;;29.70;91.00;;;;;;5075699;28;20111;-78
2022/08/22 11:22:43;;;;;;;7.13;2.50;;;29.80;90.40;;;;;;5075311;28;20058;-80
2022/08/22 11:25:12;;;;;;;9.63;2.92;;;30.10;90.10;;;;;;5075208;28;20033;-77
2022/08/22 11:28:16;;;;;;;13.00;2.55;;;29.50;90.00;;;;;;5073924;28;20068;-73
2022/08/22 11:30:42;;;;;;;12.35;3.25;;;29.30;90.30;;;;;;5075160;28;20461;-73
2022/08/22 11:33:07;;;;;;;12.57;2.75;;;29.80;90.00;;;;;;5075334;28;20103;-76
2022/08/22 11:35:47;;;;;;;9.70;2.35;;;29.80;90.60;;;;;;5062933;28;20116;-76
2022/08/22 11:38:34;;;;;;;9.45;2.78;;;30.90;87.90;;;;;;5061562;28;20123;-79
2022/08/22 11:41:32;;;;;;;10.55;2.83;;;30.50;87.30;;;;;;5075111;28;20036;-75
2022/08/22 11:44:14;;;;;;;10.82;2.70;;;30.10;86.70;;;;;;5074165;28;20086;-74
2022/08/22 11:46:44;;;;;;;6.25;2.20;;;29.20;89.10;;;;;;5074452;28;20476;-73
2022/08/22 11:49:36;;;;;;;8.25;2.88;;;29.80;87.10;;;;;;5075036;28;20032;-76
2022/08/22 11:52:14;;;;;;;10.73;2.72;;;29.60;88.40;;;;;;5075064;28;20043;-74
2022/08/22 11:55:07;;;;;;;11.25;2.80;;;29.30;88.10;;;;;;5074883;28;20412;-76
2022/08/22 11:57:38;;;;;;;7.97;2.72;;;29.70;87.50;;;;;;5074655;28;20056;-73
2022/08/22 12:00:11;;;;;;;;;;;29.70;87.40;;;;;;5074058;28;20066;-73
2022/08/22 12:02:43;;;;;;;10.43;2.58;;;29.90;87.90;;;;;;5074737;28;19908;-74
2022/08/22 12:05:19;;;;;;;8.50;2.65;;;29.90;88.30;;;;;;5074821;28;20024;-72
2022/08/22 12:08:03;;;;;;;8.57;2.60;;;29.90;85.10;;;;;;5074377;28;20017;-71
2022/08/22 12:10:35;;;;;;;6.07;2.38;;;29.60;85.40;;;;;;5074739;28;20570;-71
2022/08/22 12:13:01;;;;;;;7.25;2.25;;;29.40;87.40;;;;;;5076580;28;20107;-77
2022/08/22 12:15:50;;;;;;;7.40;2.22;;;29.80;86.70;;;;;;5077196;28;20558;-73
2022/08/22 12:18:31;;;;;;;11.90;2.67;;;30.30;85.40;;;;;;5074271;28;20036;-78
2022/08/22 12:21:17;;;;;;;6.45;2.38;;;30.30;85.90;;;;;;5074624;28;20085;-77
2022/08/22 12:24:13;;;;;;;8.68;2.90;;;29.80;85.50;;;;;;5072763;28;20037;-78
2022/08/22 12:26:45;;;;;;;9.55;2.78;;;30.40;83.20;;;;;;5074034;28;20082;-79
2022/08/22 12:29:41;;;;;;;9.27;2.45;;;31.40;84.50;;;;;;5073804;28;20107;-80
2022/08/22 12:32:38;;;;;;;8.55;2.53;;;31.80;82.30;;;;;;5074160;28;20468;-75
2022/08/22 12:35:38;;;;;;;9.32;2.40;;;32.50;79.20;;;;;;5061250;28;20028;-76
2022/08/22 12:38:22;;;;;;;9.30;2.70;;;30.90;79.70;;;;;;5073902;28;20489;-79
2022/08/22 12:41:19;;;;;;;7.60;2.40;;;29.80;80.00;;;;;;5074090;28;20040;-78
2022/08/22 12:44:20;;;;;;;8.20;1.90;;;29.80;81.60;;;;;;5073697;28;20108;-78
2022/08/22 12:47:07;;;;;;;11.43;2.40;;;30.90;81.60;;;;;;5018056;28;20075;-73
2022/08/22 12:49:37;;;;;;;6.35;2.33;;;32.00;81.20;;;;;;5073368;28;20075;-78
2022/08/22 12:52:21;;;;;;;7.95;2.58;;;31.90;80.30;;;;;;5073990;28;20538;-77
2022/08/22 12:55:07;;;;;;;12.52;2.70;;;32.20;80.60;;;;;;5073596;28;20021;-77
2022/08/22 12:57:36;;;;;;;8.85;2.42;;;33.10;79.90;;;;;;5073253;28;20119;-76
2022/08/22 13:00:36;;;;;;;18.15;3.05;;;32.70;79.00;;;;;;5073493;28;20025;-75
2022/08/22 13:03:31;;;;;;;6.40;2.40;;;32.90;78.20;;;;;;5067494;28;20040;-78
2022/08/22 13:06:05;;;;;;;8.63;2.72;;;32.90;79.10;;;;;;5073696;28;20028;-79
2022/08/22 13:08:37;;;;;;;8.15;2.40;;;32.90;79.10;;;;;;5073147;28;20021;-78
2022/08/22 13:11:12;;;;;;;12.02;2.63;;;32.60;79.10;;;;;;5073102;28;20086;-77
2022/08/22 13:13:52;;;;;;;14.27;3.05;;;32.80;79.10;;;;;;5073201;28;20040;-78
2022/08/22 13:16:21;;;;;;;9.38;2.25;;;33.80;77.90;;;;;;5073373;28;20040;-77
2022/08/22 13:18:49;;;;;;;6.75;2.78;;;33.70;76.80;;;;;;5073126;28;20107;-79
2022/08/22 13:21:20;;;;;;;10.45;2.90;;;33.10;77.50;;;;;;5072157;28;20086;-77
2022/08/22 13:23:52;;;;;;;;;;;33.10;77.90;;;;;;5073543;28;20024;-74
2022/08/22 13:26:19;;;;;;;;;;;33.00;77.40;;;;;;5071853;28;19912;-79
2022/08/22 13:28:53;;;;;;;7.80;2.35;;;33.10;76.90;;;;;;5072939;28;19912;-79
2022/08/22 13:31:28;;;;;;;8.98;2.67;;;33.90;76.90;;;;;;5073029;28;20036;-80
2022/08/22 13:34:04;;;;;;;7.70;2.58;;;34.30;73.80;;;;;;5078863;28;20063;-79
2022/08/22 13:36:39;;;;;;;9.50;2.47;;;35.00;74.50;;;;;;5072928;28;20039;-78
2022/08/22 13:39:28;;;;;;;13.10;2.67;;;35.80;72.70;;;;;;5070013;28;20028;-70
2022/08/22 13:41:57;;;;;;;11.27;2.80;;;35.90;73.80;;;;;;5056612;28;20039;-70
2022/08/22 13:44:35;;;;;;;8.45;2.30;;;37.60;72.50;;;;;;5059970;28;20036;-71
2022/08/22 13:47:09;;;;;;;10.15;2.47;;;38.40;70.80;;;;;;5056746;28;20512;-71
2022/08/22 13:49:38;;;;;;;7.25;2.25;;;37.50;68.90;;;;;;5057595;28;20050;-72
2022/08/22 13:52:36;;;;;;;9.43;2.53;;;37.50;70.10;;;;;;5057064;28;20047;-69